sensor_id;sensor_type;location;lat;lon;timestamp;P1;durP1;ratioP1;P2;durP2;ratioP2
75135;SDS011;63707;52.212;9.540;2023-03-26T00:01:09;11.30;;;5.10;;
75135;SDS011;63707;52.212;9.540;2023-03-26T00:03:38;14.32;;;5.25;;
75135;SDS011;63707;52.212;9.540;2023-03-26T00:06:05;7.18;;;5.00;;
75135;SDS011;63707;52.212;9.540;2023-03-26T00:08:33;11.65;;;4.88;;
75135;SDS011;63707;52.212;9.540;2023-03-26T00:10:59;12.48;;;5.40;;
75135;SDS011;63707;52.212;9.540;2023-03-26T00:13:25;12.27;;;5.15;;
75135;SDS011;63707;52.212;9.540;2023-03-26T00:15:51;9.25;;;4.50;;
75135;SDS011;63707;52.212;9.540;2023-03-26T00:18:18;15.57;;;4.95;;
75135;SDS011;63707;52.212;9.540;2023-03-26T00:20:49;11.80;;;4.22;;
75135;SDS011;63707;52.212;9.540;2023-03-26T00:23:14;11.38;;;4.60;;
75135;SDS011;63707;52.212;9.540;2023-03-26T00:25:39;8.98;;;4.20;;
75135;SDS011;63707;52.212;9.540;2023-03-26T00:28:07;13.85;;;3.83;;
75135;SDS011;63707;52.212;9.540;2023-03-26T00:30:33;10.68;;;4.38;;
75135;SDS011;63707;52.212;9.540;2023-03-26T00:33:05;8.73;;;5.22;;
75135;SDS011;63707;52.212;9.540;2023-03-26T00:35:33;10.45;;;3.60;;
75135;SDS011;63707;52.212;9.540;2023-03-26T00:38:00;9.23;;;4.43;;
75135;SDS011;63707;52.212;9.540;2023-03-26T00:40:25;10.50;;;4.15;;
75135;SDS011;63707;52.212;9.540;2023-03-26T00:42:51;15.45;;;4.75;;
75135;SDS011;63707;52.212;9.540;2023-03-26T00:45:16;13.52;;;4.32;;
75135;SDS011;63707;52.212;9.540;2023-03-26T00:47:45;11.52;;;4.57;;
75135;SDS011;63707;52.212;9.540;2023-03-26T00:50:11;10.52;;;4.32;;
75135;SDS011;63707;52.212;9.540;2023-03-26T00:52:40;11.25;;;4.38;;
75135;SDS011;63707;52.212;9.540;2023-03-26T00:55:07;13.50;;;5.05;;
75135;SDS011;63707;52.212;9.540;2023-03-26T00:57:33;12.00;;;4.40;;
75135;SDS011;63707;52.212;9.540;2023-03-26T01:00:01;12.18;;;4.28;;
75135;SDS011;63707;52.212;9.540;2023-03-26T01:02:40;9.82;;;4.20;;
75135;SDS011;63707;52.212;9.540;2023-03-26T01:08:11;8.35;;;3.15;;
75135;SDS011;63707;52.212;9.540;2023-03-26T01:10:42;9.60;;;3.70;;
75135;SDS011;63707;52.212;9.540;2023-03-26T01:13:14;9.70;;;3.50;;
75135;SDS011;63707;52.212;9.540;2023-03-26T01:15:41;6.80;;;2.20;;
75135;SDS011;63707;52.212;9.540;2023-03-26T01:18:08;8.07;;;3.20;;
75135;SDS011;63707;52.212;9.540;2023-03-26T01:20:33;10.65;;;3.00;;
75135;SDS011;63707;52.212;9.540;2023-03-26T01:23:12;6.82;;;2.88;;
75135;SDS011;63707;52.212;9.540;2023-03-26T01:25:46;9.63;;;2.60;;
75135;SDS011;63707;52.212;9.540;2023-03-26T01:28:18;4.88;;;2.22;;
75135;SDS011;63707;52.212;9.540;2023-03-26T01:30:46;8.68;;;2.45;;
75135;SDS011;63707;52.212;9.540;2023-03-26T01:33:19;6.30;;;2.17;;
75135;SDS011;63707;52.212;9.540;2023-03-26T01:35:55;9.32;;;2.13;;
75135;SDS011;63707;52.212;9.540;2023-03-26T01:38:26;6.25;;;1.85;;
75135;SDS011;63707;52.212;9.540;2023-03-26T01:41:02;4.93;;;1.52;;
75135;SDS011;63707;52.212;9.540;2023-03-26T01:43:34;2.45;;;0.93;;
75135;SDS011;63707;52.212;9.540;2023-03-26T01:46:04;4.07;;;1.40;;
75135;SDS011;63707;52.212;9.540;2023-03-26T01:48:33;6.53;;;1.63;;
75135;SDS011;63707;52.212;9.540;2023-03-26T01:51:00;7.22;;;1.60;;
75135;SDS011;63707;52.212;9.540;2023-03-26T01:53:26;5.35;;;1.50;;
75135;SDS011;63707;52.212;9.540;2023-03-26T01:55:53;6.57;;;1.70;;
75135;SDS011;63707;52.212;9.540;2023-03-26T01:58:30;7.78;;;2.10;;
75135;SDS011;63707;52.212;9.540;2023-03-26T02:01:04;6.55;;;2.17;;
75135;SDS011;63707;52.212;9.540;2023-03-26T02:03:37;7.10;;;1.98;;
75135;SDS011;63707;52.212;9.540;2023-03-26T02:06:09;8.02;;;2.45;;
75135;SDS011;63707;52.212;9.540;2023-03-26T02:08:40;10.95;;;2.13;;
75135;SDS011;63707;52.212;9.540;2023-03-26T02:11:11;5.05;;;1.73;;
75135;SDS011;63707;52.212;9.540;2023-03-26T02:13:41;8.80;;;2.72;;
75135;SDS011;63707;52.212;9.540;2023-03-26T02:16:08;5.50;;;1.80;;
75135;SDS011;63707;52.212;9.540;2023-03-26T02:18:38;6.22;;;2.05;;
75135;SDS011;63707;52.212;9.540;2023-03-26T02:21:04;8.38;;;1.80;;
75135;SDS011;63707;52.212;9.540;2023-03-26T02:23:34;8.82;;;2.17;;
75135;SDS011;63707;52.212;9.540;2023-03-26T02:26:01;6.32;;;2.28;;
75135;SDS011;63707;52.212;9.540;2023-03-26T02:28:29;10.05;;;3.35;;
75135;SDS011;63707;52.212;9.540;2023-03-26T02:30:56;7.90;;;3.00;;
75135;SDS011;63707;52.212;9.540;2023-03-26T02:33:21;8.45;;;4.05;;
75135;SDS011;63707;52.212;9.540;2023-03-26T02:35:47;9.20;;;3.58;;
75135;SDS011;63707;52.212;9.540;2023-03-26T02:38:13;7.72;;;3.15;;
75135;SDS011;63707;52.212;9.540;2023-03-26T02:40:39;14.77;;;4.05;;
75135;SDS011;63707;52.212;9.540;2023-03-26T02:43:05;8.60;;;4.32;;
75135;SDS011;63707;52.212;9.540;2023-03-26T02:45:30;12.23;;;4.65;;
75135;SDS011;63707;52.212;9.540;2023-03-26T02:47:57;18.15;;;5.03;;
75135;SDS011;63707;52.212;9.540;2023-03-26T02:52:58;14.73;;;4.75;;
75135;SDS011;63707;52.212;9.540;2023-03-26T02:55:24;15.13;;;4.13;;
75135;SDS011;63707;52.212;9.540;2023-03-26T02:57:50;11.90;;;4.47;;
75135;SDS011;63707;52.212;9.540;2023-03-26T03:00:15;5.72;;;3.38;;
75135;SDS011;63707;52.212;9.540;2023-03-26T03:02:41;12.68;;;3.92;;
75135;SDS011;63707;52.212;9.540;2023-03-26T03:05:09;10.30;;;3.75;;
75135;SDS011;63707;52.212;9.540;2023-03-26T03:07:35;14.70;;;3.70;;
75135;SDS011;63707;52.212;9.540;2023-03-26T03:10:02;13.90;;;3.60;;
75135;SDS011;63707;52.212;9.540;2023-03-26T03:12:28;10.15;;;3.13;;
75135;SDS011;63707;52.212;9.540;2023-03-26T03:14:54;10.77;;;2.97;;
75135;SDS011;63707;52.212;9.540;2023-03-26T03:17:19;9.65;;;3.15;;
75135;SDS011;63707;52.212;9.540;2023-03-26T03:19:45;13.77;;;2.92;;
75135;SDS011;63707;52.212;9.540;2023-03-26T03:22:12;10.63;;;3.35;;
75135;SDS011;63707;52.212;9.540;2023-03-26T03:24:37;11.13;;;3.50;;
75135;SDS011;63707;52.212;9.540;2023-03-26T03:27:03;12.85;;;3.50;;
75135;SDS011;63707;52.212;9.540;2023-03-26T03:29:29;6.85;;;3.05;;
75135;SDS011;63707;52.212;9.540;2023-03-26T03:31:55;8.35;;;3.35;;
75135;SDS011;63707;52.212;9.540;2023-03-26T03:34:20;9.90;;;3.53;;
75135;SDS011;63707;52.212;9.540;2023-03-26T03:36:46;12.52;;;3.80;;
75135;SDS011;63707;52.212;9.540;2023-03-26T03:39:14;11.75;;;3.13;;
75135;SDS011;63707;52.212;9.540;2023-03-26T03:41:39;16.85;;;3.65;;
75135;SDS011;63707;52.212;9.540;2023-03-26T03:44:05;13.23;;;4.57;;
75135;SDS011;63707;52.212;9.540;2023-03-26T03:46:31;8.73;;;3.55;;
75135;SDS011;63707;52.212;9.540;2023-03-26T03:48:56;8.77;;;3.47;;
75135;SDS011;63707;52.212;9.540;2023-03-26T03:51:22;9.77;;;3.65;;
75135;SDS011;63707;52.212;9.540;2023-03-26T03:53:48;11.23;;;4.03;;
75135;SDS011;63707;52.212;9.540;2023-03-26T03:56:15;8.68;;;3.70;;
75135;SDS011;63707;52.212;9.540;2023-03-26T03:58:43;11.65;;;3.58;;
75135;SDS011;63707;52.212;9.540;2023-03-26T04:01:10;14.75;;;4.40;;
75135;SDS011;63707;52.212;9.540;2023-03-26T04:03:36;10.48;;;4.88;;
75135;SDS011;63707;52.212;9.540;2023-03-26T04:06:02;10.90;;;4.13;;
75135;SDS011;63707;52.212;9.540;2023-03-26T04:08:31;11.75;;;4.68;;
75135;SDS011;63707;52.212;9.540;2023-03-26T04:10:57;16.25;;;4.50;;
75135;SDS011;63707;52.212;9.540;2023-03-26T04:13:24;19.15;;;5.35;;
75135;SDS011;63707;52.212;9.540;2023-03-26T04:15:50;16.15;;;5.93;;
75135;SDS011;63707;52.212;9.540;2023-03-26T04:18:15;13.40;;;5.38;;
75135;SDS011;63707;52.212;9.540;2023-03-26T04:20:41;17.85;;;5.70;;
75135;SDS011;63707;52.212;9.540;2023-03-26T04:23:11;20.00;;;5.95;;
75135;SDS011;63707;52.212;9.540;2023-03-26T04:25:38;16.08;;;6.75;;
75135;SDS011;63707;52.212;9.540;2023-03-26T04:28:04;19.30;;;5.82;;
75135;SDS011;63707;52.212;9.540;2023-03-26T04:30:34;24.27;;;6.55;;
75135;SDS011;63707;52.212;9.540;2023-03-26T04:33:00;17.70;;;7.22;;
75135;SDS011;63707;52.212;9.540;2023-03-26T04:35:28;21.58;;;7.03;;
75135;SDS011;63707;52.212;9.540;2023-03-26T04:37:58;14.73;;;6.25;;
75135;SDS011;63707;52.212;9.540;2023-03-26T04:40:24;21.73;;;7.07;;
75135;SDS011;63707;52.212;9.540;2023-03-26T04:42:50;14.57;;;6.65;;
75135;SDS011;63707;52.212;9.540;2023-03-26T04:45:18;14.68;;;6.82;;
75135;SDS011;63707;52.212;9.540;2023-03-26T04:47:47;23.65;;;7.00;;
75135;SDS011;63707;52.212;9.540;2023-03-26T04:50:14;20.77;;;6.82;;
75135;SDS011;63707;52.212;9.540;2023-03-26T04:52:40;20.80;;;6.28;;
75135;SDS011;63707;52.212;9.540;2023-03-26T04:55:11;18.42;;;6.93;;
75135;SDS011;63707;52.212;9.540;2023-03-26T04:57:43;19.40;;;7.40;;
75135;SDS011;63707;52.212;9.540;2023-03-26T05:00:15;19.77;;;6.90;;
75135;SDS011;63707;52.212;9.540;2023-03-26T05:02:42;18.52;;;6.72;;
75135;SDS011;63707;52.212;9.540;2023-03-26T05:05:09;19.13;;;6.45;;
75135;SDS011;63707;52.212;9.540;2023-03-26T05:07:35;21.67;;;6.88;;
75135;SDS011;63707;52.212;9.540;2023-03-26T05:10:01;21.85;;;7.40;;
75135;SDS011;63707;52.212;9.540;2023-03-26T05:12:27;12.95;;;7.03;;
75135;SDS011;63707;52.212;9.540;2023-03-26T05:14:53;16.85;;;7.55;;
75135;SDS011;63707;52.212;9.540;2023-03-26T05:17:19;20.88;;;7.10;;
75135;SDS011;63707;52.212;9.540;2023-03-26T05:19:46;20.30;;;8.13;;
75135;SDS011;63707;52.212;9.540;2023-03-26T05:22:13;23.45;;;8.10;;
75135;SDS011;63707;52.212;9.540;2023-03-26T05:24:39;27.38;;;8.50;;
75135;SDS011;63707;52.212;9.540;2023-03-26T05:27:04;25.27;;;8.57;;
75135;SDS011;63707;52.212;9.540;2023-03-26T05:29:30;18.90;;;6.82;;
75135;SDS011;63707;52.212;9.540;2023-03-26T05:31:56;18.95;;;6.65;;
75135;SDS011;63707;52.212;9.540;2023-03-26T05:34:21;21.70;;;7.70;;
75135;SDS011;63707;52.212;9.540;2023-03-26T05:36:50;21.30;;;8.20;;
75135;SDS011;63707;52.212;9.540;2023-03-26T05:39:17;17.55;;;6.85;;
75135;SDS011;63707;52.212;9.540;2023-03-26T05:41:43;22.88;;;7.47;;
75135;SDS011;63707;52.212;9.540;2023-03-26T05:44:08;18.02;;;6.88;;
75135;SDS011;63707;52.212;9.540;2023-03-26T05:46:33;17.13;;;6.88;;
75135;SDS011;63707;52.212;9.540;2023-03-26T05:48:59;17.42;;;6.13;;
75135;SDS011;63707;52.212;9.540;2023-03-26T05:51:25;19.33;;;6.43;;
75135;SDS011;63707;52.212;9.540;2023-03-26T05:53:50;14.73;;;6.30;;
75135;SDS011;63707;52.212;9.540;2023-03-26T05:56:17;26.48;;;6.05;;
75135;SDS011;63707;52.212;9.540;2023-03-26T05:58:42;12.98;;;5.68;;
75135;SDS011;63707;52.212;9.540;2023-03-26T06:01:09;15.60;;;5.45;;
75135;SDS011;63707;52.212;9.540;2023-03-26T06:03:41;16.27;;;5.50;;
75135;SDS011;63707;52.212;9.540;2023-03-26T06:06:09;13.32;;;4.80;;
75135;SDS011;63707;52.212;9.540;2023-03-26T06:08:39;15.60;;;5.20;;
75135;SDS011;63707;52.212;9.540;2023-03-26T06:11:05;13.93;;;4.70;;
75135;SDS011;63707;52.212;9.540;2023-03-26T06:13:33;17.50;;;4.63;;
75135;SDS011;63707;52.212;9.540;2023-03-26T06:15:58;11.27;;;4.63;;
75135;SDS011;63707;52.212;9.540;2023-03-26T06:18:24;7.88;;;4.00;;
75135;SDS011;63707;52.212;9.540;2023-03-26T06:20:50;15.18;;;4.45;;
75135;SDS011;63707;52.212;9.540;2023-03-26T06:23:15;17.27;;;4.32;;
75135;SDS011;63707;52.212;9.540;2023-03-26T06:25:41;14.02;;;4.63;;
75135;SDS011;63707;52.212;9.540;2023-03-26T06:28:09;11.25;;;4.13;;
75135;SDS011;63707;52.212;9.540;2023-03-26T06:30:36;15.95;;;4.75;;
75135;SDS011;63707;52.212;9.540;2023-03-26T06:33:02;16.88;;;4.95;;
75135;SDS011;63707;52.212;9.540;2023-03-26T06:35:28;11.82;;;3.75;;
75135;SDS011;63707;52.212;9.540;2023-03-26T06:37:54;12.23;;;3.58;;
75135;SDS011;63707;52.212;9.540;2023-03-26T06:40:19;13.52;;;4.10;;
75135;SDS011;63707;52.212;9.540;2023-03-26T06:42:45;12.57;;;4.07;;
75135;SDS011;63707;52.212;9.540;2023-03-26T06:45:10;14.43;;;3.70;;
75135;SDS011;63707;52.212;9.540;2023-03-26T06:47:37;12.05;;;4.28;;
75135;SDS011;63707;52.212;9.540;2023-03-26T06:50:03;14.65;;;3.83;;
75135;SDS011;63707;52.212;9.540;2023-03-26T06:52:29;12.15;;;3.80;;
75135;SDS011;63707;52.212;9.540;2023-03-26T06:54:55;12.50;;;3.42;;
75135;SDS011;63707;52.212;9.540;2023-03-26T06:57:21;10.40;;;3.17;;
75135;SDS011;63707;52.212;9.540;2023-03-26T06:59:46;10.27;;;3.42;;
75135;SDS011;63707;52.212;9.540;2023-03-26T07:02:12;7.75;;;2.90;;
75135;SDS011;63707;52.212;9.540;2023-03-26T07:04:39;13.80;;;3.53;;
75135;SDS011;63707;52.212;9.540;2023-03-26T07:07:04;11.05;;;2.75;;
75135;SDS011;63707;52.212;9.540;2023-03-26T07:09:30;10.77;;;3.08;;
75135;SDS011;63707;52.212;9.540;2023-03-26T07:11:55;9.45;;;2.70;;
75135;SDS011;63707;52.212;9.540;2023-03-26T07:14:21;6.65;;;2.47;;
75135;SDS011;63707;52.212;9.540;2023-03-26T07:16:48;11.40;;;2.28;;
75135;SDS011;63707;52.212;9.540;2023-03-26T07:19:14;7.85;;;3.38;;
75135;SDS011;63707;52.212;9.540;2023-03-26T07:21:41;7.13;;;2.35;;
75135;SDS011;63707;52.212;9.540;2023-03-26T07:24:08;8.45;;;2.45;;
75135;SDS011;63707;52.212;9.540;2023-03-26T07:26:36;9.77;;;2.30;;
75135;SDS011;63707;52.212;9.540;2023-03-26T07:29:10;8.80;;;2.03;;
75135;SDS011;63707;52.212;9.540;2023-03-26T07:31:43;6.63;;;1.75;;
75135;SDS011;63707;52.212;9.540;2023-03-26T07:34:24;9.55;;;2.28;;
75135;SDS011;63707;52.212;9.540;2023-03-26T07:37:04;6.60;;;1.60;;
75135;SDS011;63707;52.212;9.540;2023-03-26T07:39:39;8.50;;;1.92;;
75135;SDS011;63707;52.212;9.540;2023-03-26T07:42:16;6.65;;;2.05;;
75135;SDS011;63707;52.212;9.540;2023-03-26T07:44:52;8.60;;;2.80;;
75135;SDS011;63707;52.212;9.540;2023-03-26T07:47:27;7.95;;;1.77;;
75135;SDS011;63707;52.212;9.540;2023-03-26T07:49:56;8.85;;;1.80;;
75135;SDS011;63707;52.212;9.540;2023-03-26T07:52:25;8.05;;;2.13;;
75135;SDS011;63707;52.212;9.540;2023-03-26T07:54:51;8.52;;;2.13;;
75135;SDS011;63707;52.212;9.540;2023-03-26T07:57:19;7.18;;;2.00;;
75135;SDS011;63707;52.212;9.540;2023-03-26T07:59:53;6.80;;;2.03;;
75135;SDS011;63707;52.212;9.540;2023-03-26T08:02:28;7.15;;;2.30;;
75135;SDS011;63707;52.212;9.540;2023-03-26T08:05:08;9.93;;;2.35;;
75135;SDS011;63707;52.212;9.540;2023-03-26T08:07:47;7.85;;;2.05;;
75135;SDS011;63707;52.212;9.540;2023-03-26T08:10:20;7.47;;;2.05;;
75135;SDS011;63707;52.212;9.540;2023-03-26T08:12:51;8.00;;;2.25;;
75135;SDS011;63707;52.212;9.540;2023-03-26T08:15:24;5.85;;;1.83;;
75135;SDS011;63707;52.212;9.540;2023-03-26T08:17:56;10.68;;;2.80;;
75135;SDS011;63707;52.212;9.540;2023-03-26T08:20:29;10.88;;;2.85;;
75135;SDS011;63707;52.212;9.540;2023-03-26T08:23:06;7.15;;;2.35;;
75135;SDS011;63707;52.212;9.540;2023-03-26T08:25:38;13.43;;;3.83;;
75135;SDS011;63707;52.212;9.540;2023-03-26T08:28:25;11.15;;;3.35;;
75135;SDS011;63707;52.212;9.540;2023-03-26T08:31:02;7.13;;;3.20;;
75135;SDS011;63707;52.212;9.540;2023-03-26T08:33:29;10.35;;;2.78;;
75135;SDS011;63707;52.212;9.540;2023-03-26T08:35:56;9.27;;;2.65;;
75135;SDS011;63707;52.212;9.540;2023-03-26T08:38:23;7.68;;;2.50;;
75135;SDS011;63707;52.212;9.540;2023-03-26T08:44:10;8.05;;;2.75;;
75135;SDS011;63707;52.212;9.540;2023-03-26T08:47:11;8.55;;;2.85;;
75135;SDS011;63707;52.212;9.540;2023-03-26T08:53:18;14.05;;;3.45;;
75135;SDS011;63707;52.212;9.540;2023-03-26T08:56:17;10.80;;;2.88;;
75135;SDS011;63707;52.212;9.540;2023-03-26T08:58:58;8.85;;;2.97;;
75135;SDS011;63707;52.212;9.540;2023-03-26T09:01:49;6.55;;;2.70;;
75135;SDS011;63707;52.212;9.540;2023-03-26T09:04:42;12.35;;;3.03;;
75135;SDS011;63707;52.212;9.540;2023-03-26T09:07:49;12.25;;;3.50;;
75135;SDS011;63707;52.212;9.540;2023-03-26T09:10:49;10.60;;;3.25;;
75135;SDS011;63707;52.212;9.540;2023-03-26T09:13:28;9.57;;;3.65;;
75135;SDS011;63707;52.212;9.540;2023-03-26T09:16:19;17.70;;;3.60;;
75135;SDS011;63707;52.212;9.540;2023-03-26T09:22:23;11.45;;;3.20;;
75135;SDS011;63707;52.212;9.540;2023-03-26T09:25:25;8.93;;;3.50;;
75135;SDS011;63707;52.212;9.540;2023-03-26T09:31:15;14.13;;;4.28;;
75135;SDS011;63707;52.212;9.540;2023-03-26T09:33:54;10.27;;;3.70;;
75135;SDS011;63707;52.212;9.540;2023-03-26T09:39:16;12.90;;;4.35;;
75135;SDS011;63707;52.212;9.540;2023-03-26T09:41:58;12.35;;;3.70;;
75135;SDS011;63707;52.212;9.540;2023-03-26T09:44:38;13.15;;;4.10;;
75135;SDS011;63707;52.212;9.540;2023-03-26T09:47:35;7.75;;;2.55;;
75135;SDS011;63707;52.212;9.540;2023-03-26T09:50:17;10.45;;;3.42;;
75135;SDS011;63707;52.212;9.540;2023-03-26T09:53:07;9.18;;;3.60;;
75135;SDS011;63707;52.212;9.540;2023-03-26T09:55:52;8.65;;;3.40;;
75135;SDS011;63707;52.212;9.540;2023-03-26T09:58:32;8.48;;;3.97;;
75135;SDS011;63707;52.212;9.540;2023-03-26T10:01:12;17.00;;;3.80;;
75135;SDS011;63707;52.212;9.540;2023-03-26T10:03:50;9.35;;;3.67;;
75135;SDS011;63707;52.212;9.540;2023-03-26T10:06:30;13.95;;;3.35;;
75135;SDS011;63707;52.212;9.540;2023-03-26T10:09:12;14.80;;;3.13;;
75135;SDS011;63707;52.212;9.540;2023-03-26T10:11:56;7.45;;;2.40;;
75135;SDS011;63707;52.212;9.540;2023-03-26T10:14:31;11.50;;;2.75;;
75135;SDS011;63707;52.212;9.540;2023-03-26T10:17:04;12.70;;;3.17;;
75135;SDS011;63707;52.212;9.540;2023-03-26T10:19:48;9.85;;;3.70;;
75135;SDS011;63707;52.212;9.540;2023-03-26T10:22:28;7.72;;;2.67;;
75135;SDS011;63707;52.212;9.540;2023-03-26T10:25:20;7.30;;;3.03;;
75135;SDS011;63707;52.212;9.540;2023-03-26T10:27:55;8.95;;;3.25;;
75135;SDS011;63707;52.212;9.540;2023-03-26T10:30:36;12.02;;;4.35;;
75135;SDS011;63707;52.212;9.540;2023-03-26T10:33:21;8.30;;;2.40;;
75135;SDS011;63707;52.212;9.540;2023-03-26T10:36:10;13.43;;;5.55;;
75135;SDS011;63707;52.212;9.540;2023-03-26T10:38:55;9.80;;;2.83;;
75135;SDS011;63707;52.212;9.540;2023-03-26T10:41:48;14.95;;;5.70;;
75135;SDS011;63707;52.212;9.540;2023-03-26T10:44:27;14.45;;;3.03;;
75135;SDS011;63707;52.212;9.540;2023-03-26T10:47:17;9.73;;;3.50;;
75135;SDS011;63707;52.212;9.540;2023-03-26T10:50:07;11.40;;;3.30;;
75135;SDS011;63707;52.212;9.540;2023-03-26T10:52:53;5.85;;;2.63;;
75135;SDS011;63707;52.212;9.540;2023-03-26T10:55:25;9.98;;;2.83;;
75135;SDS011;63707;52.212;9.540;2023-03-26T10:57:55;9.15;;;2.80;;
75135;SDS011;63707;52.212;9.540;2023-03-26T11:00:25;6.25;;;2.63;;
75135;SDS011;63707;52.212;9.540;2023-03-26T11:02:57;9.82;;;3.05;;
75135;SDS011;63707;52.212;9.540;2023-03-26T11:05:40;7.80;;;3.08;;
75135;SDS011;63707;52.212;9.540;2023-03-26T11:08:13;15.77;;;4.20;;
75135;SDS011;63707;52.212;9.540;2023-03-26T11:10:47;9.85;;;3.20;;
75135;SDS011;63707;52.212;9.540;2023-03-26T11:13:21;8.23;;;3.65;;
75135;SDS011;63707;52.212;9.540;2023-03-26T11:15:55;9.02;;;2.92;;
75135;SDS011;63707;52.212;9.540;2023-03-26T11:18:27;11.23;;;3.05;;
75135;SDS011;63707;52.212;9.540;2023-03-26T11:21:02;12.65;;;3.00;;
75135;SDS011;63707;52.212;9.540;2023-03-26T11:23:35;10.02;;;3.40;;
75135;SDS011;63707;52.212;9.540;2023-03-26T11:26:06;11.55;;;3.95;;
75135;SDS011;63707;52.212;9.540;2023-03-26T11:28:42;10.38;;;3.35;;
75135;SDS011;63707;52.212;9.540;2023-03-26T11:31:36;10.02;;;2.75;;
75135;SDS011;63707;52.212;9.540;2023-03-26T11:34:10;9.27;;;2.97;;
75135;SDS011;63707;52.212;9.540;2023-03-26T11:36:41;6.53;;;2.70;;
75135;SDS011;63707;52.212;9.540;2023-03-26T11:39:12;10.02;;;3.35;;
75135;SDS011;63707;52.212;9.540;2023-03-26T11:41:43;9.20;;;2.83;;
75135;SDS011;63707;52.212;9.540;2023-03-26T11:44:12;7.07;;;2.90;;
75135;SDS011;63707;52.212;9.540;2023-03-26T11:46:45;9.38;;;2.95;;
75135;SDS011;63707;52.212;9.540;2023-03-26T11:49:15;9.75;;;2.92;;
75135;SDS011;63707;52.212;9.540;2023-03-26T11:51:42;11.00;;;3.20;;
75135;SDS011;63707;52.212;9.540;2023-03-26T11:54:13;8.52;;;3.45;;
75135;SDS011;63707;52.212;9.540;2023-03-26T11:56:40;9.50;;;3.00;;
75135;SDS011;63707;52.212;9.540;2023-03-26T11:59:12;10.93;;;3.13;;
75135;SDS011;63707;52.212;9.540;2023-03-26T12:01:41;8.98;;;3.10;;
75135;SDS011;63707;52.212;9.540;2023-03-26T12:04:09;11.98;;;3.40;;
75135;SDS011;63707;52.212;9.540;2023-03-26T12:06:46;10.85;;;3.40;;
75135;SDS011;63707;52.212;9.540;2023-03-26T12:09:17;10.07;;;4.10;;
75135;SDS011;63707;52.212;9.540;2023-03-26T12:11:44;13.70;;;4.28;;
75135;SDS011;63707;52.212;9.540;2023-03-26T12:14:15;13.35;;;4.07;;
75135;SDS011;63707;52.212;9.540;2023-03-26T12:16:55;9.88;;;3.60;;
75135;SDS011;63707;52.212;9.540;2023-03-26T12:19:25;12.40;;;3.95;;
75135;SDS011;63707;52.212;9.540;2023-03-26T12:21:53;15.77;;;4.50;;
75135;SDS011;63707;52.212;9.540;2023-03-26T12:24:26;12.65;;;3.70;;
75135;SDS011;63707;52.212;9.540;2023-03-26T12:26:57;10.65;;;3.60;;
75135;SDS011;63707;52.212;9.540;2023-03-26T12:29:26;7.88;;;3.38;;
75135;SDS011;63707;52.212;9.540;2023-03-26T12:31:53;11.88;;;3.30;;
75135;SDS011;63707;52.212;9.540;2023-03-26T12:34:20;11.25;;;3.10;;
75135;SDS011;63707;52.212;9.540;2023-03-26T12:36:49;10.32;;;3.10;;
75135;SDS011;63707;52.212;9.540;2023-03-26T12:39:29;10.95;;;3.60;;
75135;SDS011;63707;52.212;9.540;2023-03-26T12:41:57;8.15;;;3.35;;
75135;SDS011;63707;52.212;9.540;2023-03-26T12:44:25;10.35;;;3.58;;
75135;SDS011;63707;52.212;9.540;2023-03-26T12:47:06;11.90;;;3.90;;
75135;SDS011;63707;52.212;9.540;2023-03-26T12:49:34;15.38;;;4.53;;
75135;SDS011;63707;52.212;9.540;2023-03-26T12:52:03;17.13;;;4.03;;
75135;SDS011;63707;52.212;9.540;2023-03-26T12:54:42;9.15;;;3.70;;
75135;SDS011;63707;52.212;9.540;2023-03-26T12:57:17;14.63;;;4.55;;
75135;SDS011;63707;52.212;9.540;2023-03-26T12:59:57;14.77;;;5.03;;
75135;SDS011;63707;52.212;9.540;2023-03-26T13:02:55;9.82;;;4.07;;
75135;SDS011;63707;52.212;9.540;2023-03-26T13:05:43;11.45;;;4.38;;
75135;SDS011;63707;52.212;9.540;2023-03-26T13:08:21;10.98;;;4.18;;
75135;SDS011;63707;52.212;9.540;2023-03-26T13:11:05;11.43;;;4.40;;
75135;SDS011;63707;52.212;9.540;2023-03-26T13:16:39;11.50;;;3.58;;
75135;SDS011;63707;52.212;9.540;2023-03-26T13:19:11;10.77;;;3.90;;
75135;SDS011;63707;52.212;9.540;2023-03-26T13:21:45;11.45;;;3.72;;
75135;SDS011;63707;52.212;9.540;2023-03-26T13:24:24;7.38;;;3.60;;
75135;SDS011;63707;52.212;9.540;2023-03-26T13:27:06;11.60;;;3.90;;
75135;SDS011;63707;52.212;9.540;2023-03-26T13:29:43;8.40;;;3.20;;
75135;SDS011;63707;52.212;9.540;2023-03-26T13:32:22;11.82;;;3.65;;
75135;SDS011;63707;52.212;9.540;2023-03-26T13:34:57;8.80;;;3.75;;
75135;SDS011;63707;52.212;9.540;2023-03-26T13:37:32;8.25;;;3.47;;
75135;SDS011;63707;52.212;9.540;2023-03-26T13:40:11;11.15;;;3.65;;
75135;SDS011;63707;52.212;9.540;2023-03-26T13:42:49;10.52;;;3.58;;
75135;SDS011;63707;52.212;9.540;2023-03-26T13:45:30;7.10;;;2.92;;
75135;SDS011;63707;52.212;9.540;2023-03-26T13:48:07;9.07;;;3.22;;
75135;SDS011;63707;52.212;9.540;2023-03-26T13:50:39;11.68;;;3.38;;
75135;SDS011;63707;52.212;9.540;2023-03-26T13:53:08;8.25;;;3.25;;
75135;SDS011;63707;52.212;9.540;2023-03-26T13:58:11;18.75;;;5.68;;
75135;SDS011;63707;52.212;9.540;2023-03-26T14:00:46;16.75;;;4.57;;
75135;SDS011;63707;52.212;9.540;2023-03-26T14:03:20;10.27;;;4.05;;
75135;SDS011;63707;52.212;9.540;2023-03-26T14:05:53;12.98;;;3.90;;
75135;SDS011;63707;52.212;9.540;2023-03-26T14:08:23;9.68;;;3.80;;
75135;SDS011;63707;52.212;9.540;2023-03-26T14:13:28;16.73;;;4.18;;
75135;SDS011;63707;52.212;9.540;2023-03-26T14:15:58;12.18;;;3.42;;
75135;SDS011;63707;52.212;9.540;2023-03-26T14:18:32;14.05;;;3.75;;
75135;SDS011;63707;52.212;9.540;2023-03-26T14:21:12;13.65;;;3.50;;
75135;SDS011;63707;52.212;9.540;2023-03-26T14:23:59;14.30;;;3.47;;
75135;SDS011;63707;52.212;9.540;2023-03-26T14:26:36;17.38;;;3.67;;
75135;SDS011;63707;52.212;9.540;2023-03-26T14:32:04;15.45;;;4.25;;
75135;SDS011;63707;52.212;9.540;2023-03-26T14:34:43;13.27;;;5.13;;
75135;SDS011;63707;52.212;9.540;2023-03-26T14:40:26;16.02;;;4.35;;
75135;SDS011;63707;52.212;9.540;2023-03-26T14:42:56;10.80;;;3.95;;
75135;SDS011;63707;52.212;9.540;2023-03-26T14:45:40;17.92;;;4.40;;
75135;SDS011;63707;52.212;9.540;2023-03-26T14:48:30;12.60;;;3.92;;
75135;SDS011;63707;52.212;9.540;2023-03-26T14:51:08;19.85;;;4.60;;
75135;SDS011;63707;52.212;9.540;2023-03-26T14:53:42;17.73;;;4.75;;
75135;SDS011;63707;52.212;9.540;2023-03-26T14:56:16;19.45;;;4.85;;
75135;SDS011;63707;52.212;9.540;2023-03-26T14:59:17;13.52;;;4.13;;
75135;SDS011;63707;52.212;9.540;2023-03-26T15:05:33;23.45;;;6.03;;
75135;SDS011;63707;52.212;9.540;2023-03-26T15:08:22;14.10;;;5.55;;
75135;SDS011;63707;52.212;9.540;2023-03-26T15:11:14;16.63;;;4.95;;
75135;SDS011;63707;52.212;9.540;2023-03-26T15:13:54;16.33;;;3.90;;
75135;SDS011;63707;52.212;9.540;2023-03-26T15:20:03;12.73;;;3.65;;
75135;SDS011;63707;52.212;9.540;2023-03-26T15:23:08;9.77;;;3.22;;
75135;SDS011;63707;52.212;9.540;2023-03-26T15:26:04;9.52;;;3.15;;
75135;SDS011;63707;52.212;9.540;2023-03-26T15:29:08;13.98;;;4.10;;
75135;SDS011;63707;52.212;9.540;2023-03-26T15:34:50;11.65;;;4.05;;
75135;SDS011;63707;52.212;9.540;2023-03-26T15:40:36;12.05;;;3.75;;
75135;SDS011;63707;52.212;9.540;2023-03-26T15:43:12;12.45;;;3.30;;
75135;SDS011;63707;52.212;9.540;2023-03-26T15:45:38;11.98;;;3.22;;
75135;SDS011;63707;52.212;9.540;2023-03-26T15:51:21;10.10;;;3.22;;
75135;SDS011;63707;52.212;9.540;2023-03-26T15:53:58;11.23;;;2.80;;
75135;SDS011;63707;52.212;9.540;2023-03-26T15:56:37;14.00;;;3.33;;
75135;SDS011;63707;52.212;9.540;2023-03-26T15:59:21;13.95;;;3.15;;
75135;SDS011;63707;52.212;9.540;2023-03-26T16:01:56;8.98;;;3.05;;